Time;durP1;ratioP1;P1;durP2;ratioP2;P2;SDS_P1;SDS_P2;PMS_P1;PMS_P2;Temp;Humidity;BMP_temperature;BMP_pressure;BME280_temperature;BME280_humidity;BME280_pressure;Samples;Min_cycle;Max_cycle;Signal;HPM_P1;HPM_P2
2023/05/28 00:00:12;;;;;;;1.20;0.90;;;24.20;51.00;;;;;;6291734;28;20047;-53
2023/05/28 00:03:18;;;;;;;1.30;1.08;;;24.10;50.80;;;;;;6292899;28;20032;-52
2023/05/28 00:06:21;;;;;;;1.27;0.90;;;24.00;50.70;;;;;;6292758;28;20117;-54
2023/05/28 00:09:22;;;;;;;1.30;1.17;;;24.10;50.70;;;;;;6292963;28;20075;-54
2023/05/28 00:12:24;;;;;;;1.65;1.05;;;23.70;50.40;;;;;;6292778;28;20553;-52
2023/05/28 00:15:28;;;;;;;0.90;0.80;;;24.00;50.50;;;;;;6291309;28;20033;-53
2023/05/28 00:18:30;;;;;;;1.08;0.90;;;24.10;50.50;;;;;;6292523;28;20037;-51
2023/05/28 00:21:33;;;;;;;1.23;1.00;;;23.90;50.30;;;;;;6291632;28;20045;-51
2023/05/28 00:24:34;;;;;;;0.95;0.80;;;23.90;50.20;;;;;;6292030;28;20085;-53
2023/05/28 00:27:36;;;;;;;1.27;0.93;;;23.90;50.20;;;;;;6292645;28;20044;-53
2023/05/28 00:30:37;;;;;;;1.38;1.02;;;23.90;50.30;;;;;;6292432;28;20044;-53
2023/05/28 00:33:39;;;;;;;1.02;0.90;;;23.80;50.10;;;;;;6292103;28;20047;-53
2023/05/28 00:36:41;;;;;;;1.20;0.80;;;23.90;50.20;;;;;;6291785;28;20089;-54
2023/05/28 00:39:43;;;;;;;1.13;0.90;;;23.90;50.10;;;;;;6291746;28;20086;-53
2023/05/28 00:42:44;;;;;;;1.10;0.93;;;23.80;50.10;;;;;;6291626;28;20559;-53
2023/05/28 00:45:49;;;;;;;1.20;1.00;;;23.80;50.00;;;;;;6291984;28;20045;-53
2023/05/28 00:48:51;;;;;;;1.85;1.10;;;23.50;49.80;;;;;;6292147;28;20570;-53
2023/05/28 00:51:55;;;;;;;1.27;0.98;;;23.70;49.90;;;;;;6291644;28;20043;-53
2023/05/28 00:54:58;;;;;;;1.30;0.90;;;23.80;49.90;;;;;;6290367;28;20037;-52
2023/05/28 00:58:05;;;;;;;1.00;0.88;;;23.80;49.90;;;;;;6289591;28;20051;-54
2023/05/28 01:01:08;;;;;;;1.00;0.82;;;23.70;49.80;;;;;;6292036;28;20070;-53
2023/05/28 01:04:10;;;;;;;1.90;0.75;;;23.70;49.80;;;;;;6291818;28;20709;-54
2023/05/28 01:07:12;;;;;;;1.23;0.88;;;23.60;49.70;;;;;;6291771;28;20353;-52
2023/05/28 01:10:14;;;;;;;1.20;1.10;;;23.60;49.70;;;;;;6291368;28;20041;-53
2023/05/28 01:13:17;;;;;;;1.15;0.80;;;23.60;49.70;;;;;;6290013;28;20049;-52
2023/05/28 01:16:19;;;;;;;1.10;1.00;;;23.40;49.50;;;;;;6291446;28;20032;-53
2023/05/28 01:19:27;;;;;;;1.70;0.77;;;23.60;49.60;;;;;;6291880;28;20119;-53
2023/05/28 01:22:34;;;;;;;1.05;0.90;;;23.60;49.50;;;;;;6291320;28;20037;-51
2023/05/28 01:25:39;;;;;;;1.27;0.80;;;23.50;49.50;;;;;;6291419;28;20035;-51
2023/05/28 01:28:44;;;;;;;0.90;0.73;;;23.50;49.50;;;;;;6291442;28;20037;-52
2023/05/28 01:31:45;;;;;;;1.08;0.93;;;23.50;49.50;;;;;;6291276;28;20044;-48
2023/05/28 01:34:50;;;;;;;1.55;1.17;;;23.50;49.40;;;;;;6290949;28;20037;-53
2023/05/28 01:37:58;;;;;;;0.98;0.80;;;23.40;49.30;;;;;;6291116;28;20043;-54
2023/05/28 01:41:02;;;;;;;2.08;0.88;;;23.50;49.30;;;;;;6291039;28;20119;-53
2023/05/28 01:44:06;;;;;;;1.33;1.00;;;23.30;49.20;;;;;;6290634;28;20108;-52
2023/05/28 01:47:12;;;;;;;1.27;0.70;;;23.60;49.20;;;;;;6290735;28;20142;-53
2023/05/28 01:50:14;;;;;;;1.25;0.70;;;23.20;49.00;;;;;;6290942;28;20058;-54
2023/05/28 01:53:19;;;;;;;1.13;0.90;;;23.60;49.20;;;;;;6290013;28;20039;-54
2023/05/28 01:56:23;;;;;;;1.90;0.70;;;23.50;49.20;;;;;;6290522;28;20036;-53
2023/05/28 01:59:25;;;;;;;1.15;0.93;;;23.50;49.20;;;;;;6290264;28;20039;-53
2023/05/28 02:02:27;;;;;;;1.00;0.70;;;23.30;49.10;;;;;;6290148;28;20036;-50
2023/05/28 02:05:29;;;;;;;1.10;0.80;;;23.00;48.90;;;;;;6287931;28;20450;-52
2023/05/28 02:08:30;;;;;;;0.93;0.70;;;23.50;49.20;;;;;;6290187;28;20067;-53
2023/05/28 02:11:38;;;;;;;1.42;0.90;;;23.40;49.10;;;;;;6290633;28;20089;-53
2023/05/28 02:14:43;;;;;;;1.20;0.93;;;23.40;49.10;;;;;;6290025;28;20044;-54
2023/05/28 02:17:45;;;;;;;0.95;0.68;;;23.50;49.10;;;;;;6290308;28;20427;-54
2023/05/28 02:20:49;;;;;;;1.20;0.75;;;23.30;49.10;;;;;;6290071;28;20116;-53
2023/05/28 02:23:51;;;;;;;2.00;1.00;;;23.30;49.00;;;;;;6289946;28;20083;-54
2023/05/28 02:26:54;;;;;;;1.58;1.00;;;23.40;49.10;;;;;;6290163;28;20041;-58
2023/05/28 02:29:56;;;;;;;0.85;0.77;;;23.30;49.00;;;;;;6287914;28;20041;-58
2023/05/28 02:32:57;;;;;;;;;;;23.30;49.10;;;;;;6289672;28;20086;-58
2023/05/28 02:36:00;;;;;;;1.63;0.93;;;23.40;49.30;;;;;;6287896;28;19927;-58
2023/05/28 02:39:02;;;;;;;1.10;0.68;;;23.30;49.20;;;;;;6287868;28;20037;-58
2023/05/28 02:42:05;;;;;;;1.30;0.65;;;23.00;48.90;;;;;;6289141;28;20048;-58
2023/05/28 02:45:07;;;;;;;1.10;0.73;;;23.30;49.00;;;;;;6289260;28;20082;-57
2023/05/28 02:48:08;;;;;;;0.90;0.80;;;23.20;49.00;;;;;;6289398;28;20041;-58
2023/05/28 02:51:11;;;;;;;1.25;0.82;;;23.30;49.10;;;;;;6289569;28;20040;-58
2023/05/28 02:54:30;;;;;;;1.30;0.70;;;23.00;49.00;;;;;;6289010;28;20127;-59
2023/05/28 02:57:32;;;;;;;1.15;0.90;;;23.30;49.20;;;;;;6289100;28;20071;-58
2023/05/28 03:00:35;;;;;;;1.02;0.75;;;23.20;49.10;;;;;;6289476;28;20033;-58
2023/05/28 03:03:37;;;;;;;;;;;23.30;49.20;;;;;;6289783;28;20043;-58
2023/05/28 03:06:41;;;;;;;0.93;0.80;;;22.90;49.10;;;;;;6289152;28;20387;-58
2023/05/28 03:09:42;;;;;;;0.93;0.73;;;22.20;48.70;;;;;;6288895;28;20036;-58
2023/05/28 03:12:45;;;;;;;1.42;0.80;;;23.20;49.20;;;;;;6288679;28;20522;-59
2023/05/28 03:15:47;;;;;;;1.35;0.80;;;23.00;49.00;;;;;;6289896;28;20040;-58
2023/05/28 03:18:49;;;;;;;1.08;0.80;;;23.10;49.10;;;;;;6293681;28;20089;-58
2023/05/28 03:21:51;;;;;;;1.02;0.90;;;23.30;49.20;;;;;;6293073;28;20459;-58
2023/05/28 03:24:57;;;;;;;1.30;0.90;;;22.70;48.90;;;;;;6293212;28;20561;-58
2023/05/28 03:27:59;;;;;;;1.02;0.93;;;22.80;48.90;;;;;;6293346;28;20096;-58
2023/05/28 03:31:14;;;;;;;1.10;0.80;;;23.20;49.10;;;;;;6292756;28;20029;-58
2023/05/28 03:34:16;;;;;;;1.00;0.82;;;23.30;49.20;;;;;;6292684;28;20029;-58
2023/05/28 03:37:18;;;;;;;1.20;0.80;;;23.10;49.10;;;;;;6292513;28;20115;-58
2023/05/28 03:40:19;;;;;;;1.58;0.70;;;23.20;49.30;;;;;;6292759;28;20048;-57
2023/05/28 03:43:21;;;;;;;1.23;0.80;;;23.00;49.00;;;;;;6292649;28;20048;-58
2023/05/28 03:46:27;;;;;;;1.08;0.60;;;23.10;49.10;;;;;;6292747;28;20094;-58
2023/05/28 03:49:29;;;;;;;1.08;0.60;;;23.20;48.70;;;;;;6292630;28;20637;-58
2023/05/28 03:52:32;;;;;;;1.02;0.80;;;23.20;49.20;;;;;;6292536;28;20040;-58
2023/05/28 03:55:35;;;;;;;0.90;0.80;;;23.10;49.10;;;;;;6292253;28;20511;-58
2023/05/28 03:58:38;;;;;;;0.88;0.77;;;23.10;49.10;;;;;;6291746;28;20033;-59
2023/05/28 04:01:40;;;;;;;0.90;0.70;;;22.90;49.00;;;;;;6292689;28;20044;-58
2023/05/28 04:04:42;;;;;;;1.20;0.82;;;23.20;49.20;;;;;;6293018;28;20043;-58
2023/05/28 04:07:44;;;;;;;1.08;0.68;;;22.90;49.00;;;;;;6292419;28;20205;-58
2023/05/28 04:10:45;;;;;;;0.85;0.68;;;23.00;49.10;;;;;;6292911;28;20040;-59
2023/05/28 04:13:48;;;;;;;;;;;23.10;49.80;;;;;;6292479;28;20039;-58
2023/05/28 04:16:53;;;;;;;0.82;0.73;;;23.20;49.40;;;;;;6291517;28;19926;-58
2023/05/28 04:19:55;;;;;;;0.93;0.82;;;23.10;49.10;;;;;;6290659;28;20086;-58
2023/05/28 04:22:57;;;;;;;0.85;0.70;;;23.00;49.20;;;;;;6290392;28;20509;-58
2023/05/28 04:25:59;;;;;;;1.23;0.90;;;23.10;49.20;;;;;;6289822;28;20028;-59
2023/05/28 04:29:04;;;;;;;1.02;0.82;;;22.60;49.00;;;;;;6289901;28;20538;-58
2023/05/28 04:32:08;;;;;;;0.85;0.73;;;23.10;49.20;;;;;;6290601;28;20045;-58
2023/05/28 04:35:11;;;;;;;0.90;0.75;;;23.10;49.20;;;;;;6291185;28;20381;-58
2023/05/28 04:38:13;;;;;;;1.15;0.68;;;22.90;49.00;;;;;;6290922;28;20033;-59
2023/05/28 04:41:15;;;;;;;1.17;0.80;;;23.20;49.30;;;;;;6290286;28;20036;-58
2023/05/28 04:44:17;;;;;;;1.23;0.80;;;22.80;49.10;;;;;;6290923;28;20056;-58
2023/05/28 04:47:19;;;;;;;0.80;0.70;;;23.00;49.10;;;;;;6291756;28;20439;-58
2023/05/28 04:50:23;;;;;;;1.10;0.80;;;22.90;49.10;;;;;;6290333;28;20029;-58
2023/05/28 04:53:28;;;;;;;1.20;0.70;;;23.20;48.70;;;;;;6290146;28;20407;-58
2023/05/28 04:56:30;;;;;;;0.80;0.70;;;22.80;49.10;;;;;;6290075;28;20071;-58
2023/05/28 04:59:33;;;;;;;0.85;0.63;;;23.00;49.30;;;;;;6289725;28;20240;-58
2023/05/28 05:02:35;;;;;;;0.82;0.60;;;22.80;49.00;;;;;;6290523;28;20160;-58
2023/05/28 05:05:39;;;;;;;1.25;0.93;;;23.10;49.30;;;;;;6289898;28;20407;-58
2023/05/28 05:08:40;;;;;;;0.88;0.50;;;23.10;49.30;;;;;;6290374;28;20044;-58
2023/05/28 05:11:43;;;;;;;1.42;0.70;;;23.10;49.40;;;;;;6290240;28;20039;-58
2023/05/28 05:14:45;;;;;;;1.23;0.70;;;23.10;49.40;;;;;;6290105;28;20048;-59
2023/05/28 05:17:47;;;;;;;1.00;0.90;;;23.00;49.30;;;;;;6289482;28;20043;-59
2023/05/28 05:20:49;;;;;;;0.88;0.70;;;22.90;49.30;;;;;;6289605;28;20051;-58
2023/05/28 05:23:51;;;;;;;0.90;0.70;;;23.10;49.40;;;;;;6289383;28;20068;-58
2023/05/28 05:26:53;;;;;;;;;;;23.10;49.50;;;;;;6289441;28;20123;-58
2023/05/28 05:29:55;;;;;;;;;;;23.00;49.60;;;;;;6290102;28;19943;-59
2023/05/28 05:32:57;;;;;;;0.90;0.75;;;22.90;49.60;;;;;;6289490;28;19947;-58
2023/05/28 05:36:01;;;;;;;0.85;0.60;;;23.00;49.50;;;;;;6289426;28;20036;-58
2023/05/28 05:39:22;;;;;;;1.17;0.90;;;22.90;49.40;;;;;;6287963;28;20041;-58
2023/05/28 05:42:40;;;;;;;0.93;0.75;;;23.10;49.60;;;;;;6289192;28;20087;-58
2023/05/28 05:45:43;;;;;;;1.20;0.80;;;23.10;49.70;;;;;;6288850;28;20032;-58
2023/05/28 05:48:46;;;;;;;1.33;0.80;;;22.80;49.50;;;;;;6289393;28;20618;-58
2023/05/28 05:51:48;;;;;;;0.75;0.75;;;23.10;49.80;;;;;;6287510;28;20041;-59
2023/05/28 05:54:50;;;;;;;0.75;0.70;;;23.10;49.80;;;;;;6288747;28;20071;-59
2023/05/28 05:57:51;;;;;;;1.15;0.80;;;22.70;49.60;;;;;;6288101;28;20064;-58
2023/05/28 06:00:54;;;;;;;1.02;0.80;;;22.70;49.70;;;;;;6287673;28;20621;-58
2023/05/28 06:03:55;;;;;;;1.10;0.80;;;23.10;49.80;;;;;;6287018;28;20037;-58
2023/05/28 06:07:17;;;;;;;0.95;0.80;;;22.90;50.50;;;;;;6286948;28;20044;-58
2023/05/28 06:10:30;;;;;;;1.10;0.77;;;23.10;50.10;;;;;;6286881;28;20285;-58
2023/05/28 06:13:33;;;;;;;1.15;0.85;;;22.80;50.50;;;;;;6286392;28;20586;-58
2023/05/28 06:16:35;;;;;;;0.85;0.80;;;23.00;50.00;;;;;;6286655;28;20036;-58
2023/05/28 06:19:38;;;;;;;1.10;0.90;;;23.00;50.00;;;;;;6286986;28;20115;-58
2023/05/28 06:22:40;;;;;;;1.45;0.88;;;22.70;49.90;;;;;;6286325;28;20473;-58
2023/05/28 06:25:43;;;;;;;1.00;0.80;;;23.00;50.10;;;;;;6286369;28;20533;-59
2023/05/28 06:28:49;;;;;;;0.95;0.55;;;22.70;49.90;;;;;;6286412;28;20040;-58
2023/05/28 06:31:53;;;;;;;1.15;0.80;;;23.10;50.30;;;;;;6286313;28;20041;-59
2023/05/28 06:34:54;;;;;;;1.08;0.70;;;22.60;50.00;;;;;;6286326;28;20491;-58
2023/05/28 06:37:57;;;;;;;0.80;0.70;;;23.00;50.40;;;;;;6285927;28;20082;-58
2023/05/28 06:41:01;;;;;;;1.15;0.77;;;23.10;50.40;;;;;;6285807;28;20040;-58
2023/05/28 06:44:06;;;;;;;1.25;0.80;;;22.90;50.30;;;;;;6285398;28;20286;-59
2023/05/28 06:47:18;;;;;;;0.90;0.80;;;23.00;50.60;;;;;;6286280;28;20419;-58
2023/05/28 06:50:22;;;;;;;1.13;0.70;;;22.70;50.30;;;;;;6285338;28;20044;-59
2023/05/28 06:53:27;;;;;;;1.50;0.82;;;23.10;50.00;;;;;;6291315;28;20032;-58
2023/05/28 06:56:28;;;;;;;0.90;0.70;;;23.00;50.60;;;;;;6290349;28;20511;-59
2023/05/28 06:59:50;;;;;;;;;;;22.80;50.50;;;;;;6290894;28;20168;-58
2023/05/28 07:03:11;;;;;;;1.00;0.68;;;23.00;50.80;;;;;;6290343;28;19931;-58
2023/05/28 07:06:21;;;;;;;1.35;0.80;;;23.20;50.60;;;;;;6291111;28;20076;-58
2023/05/28 07:09:23;;;;;;;1.10;0.65;;;23.10;50.80;;;;;;6290601;28;20490;-59
2023/05/28 07:12:24;;;;;;;1.02;0.88;;;22.90;50.70;;;;;;6289547;28;20035;-59
2023/05/28 07:15:29;;;;;;;0.82;0.80;;;23.00;50.80;;;;;;6290722;28;20090;-58
2023/05/28 07:18:32;;;;;;;1.48;0.60;;;22.90;50.70;;;;;;6290304;28;20075;-59
2023/05/28 07:21:35;;;;;;;0.70;0.60;;;23.20;50.90;;;;;;6289716;28;20048;-58
2023/05/28 07:24:37;;;;;;;0.80;0.70;;;23.10;50.90;;;;;;6290745;28;20036;-58
2023/05/28 07:27:38;;;;;;;1.38;0.90;;;23.10;51.00;;;;;;6289708;28;20056;-58
2023/05/28 07:30:42;;;;;;;1.30;0.82;;;23.20;51.00;;;;;;6291030;28;20044;-58
2023/05/28 07:33:44;;;;;;;0.65;0.57;;;23.20;51.00;;;;;;6288285;28;20087;-58
2023/05/28 07:36:45;;;;;;;1.10;0.80;;;23.10;50.90;;;;;;6290560;28;20123;-59
2023/05/28 07:39:51;;;;;;;1.35;0.80;;;23.00;51.00;;;;;;6290788;28;20063;-58
2023/05/28 07:42:53;;;;;;;1.35;0.93;;;23.30;51.20;;;;;;6289557;28;20047;-58
2023/05/28 07:45:55;;;;;;;1.05;0.80;;;23.20;51.20;;;;;;6288941;28;20044;-58
2023/05/28 07:49:04;;;;;;;1.25;0.90;;;23.20;51.20;;;;;;6288725;28;20237;-58
2023/05/28 07:52:16;;;;;;;1.40;0.80;;;23.20;51.10;;;;;;6287451;28;20033;-59
2023/05/28 07:55:18;;;;;;;1.30;0.80;;;23.30;51.30;;;;;;6288655;28;20503;-58
2023/05/28 07:58:19;;;;;;;1.13;0.63;;;23.10;51.20;;;;;;6289482;28;20316;-59
2023/05/28 08:01:24;;;;;;;1.08;0.80;;;23.00;51.10;;;;;;6288876;28;20033;-58
2023/05/28 08:04:26;;;;;;;0.75;0.60;;;23.30;51.20;;;;;;6288590;28;20048;-58
2023/05/28 08:07:28;;;;;;;1.00;0.80;;;22.90;50.90;;;;;;6289955;28;20064;-58
2023/05/28 08:10:29;;;;;;;1.27;0.88;;;23.20;51.10;;;;;;6289756;28;20041;-59
2023/05/28 08:13:31;;;;;;;1.50;0.73;;;23.20;51.00;;;;;;6289425;28;20042;-58
2023/05/28 08:16:40;;;;;;;0.75;0.70;;;23.40;51.20;;;;;;6289309;28;20563;-58
2023/05/28 08:19:51;;;;;;;1.00;0.65;;;23.40;51.10;;;;;;6289276;28;20036;-59
2023/05/28 08:23:18;;;;;;;0.82;0.70;;;23.30;51.00;;;;;;6289853;28;20531;-58
2023/05/28 08:26:21;;;;;;;0.68;0.68;;;23.40;51.10;;;;;;6288336;28;20048;-58
2023/05/28 08:29:22;;;;;;;1.00;0.70;;;23.40;51.20;;;;;;6289477;28;20032;-58
2023/05/28 08:32:31;;;;;;;0.85;0.73;;;23.10;50.90;;;;;;6288985;28;20033;-58
2023/05/28 08:35:35;;;;;;;1.05;0.77;;;23.30;51.00;;;;;;6288938;28;20038;-58
2023/05/28 08:38:37;;;;;;;0.75;0.75;;;23.30;50.90;;;;;;6288529;28;20515;-58
2023/05/28 08:41:43;;;;;;;1.50;0.90;;;23.50;51.10;;;;;;6287590;28;20040;-58
2023/05/28 08:44:45;;;;;;;0.90;0.70;;;23.40;51.00;;;;;;6286529;28;20500;-58
2023/05/28 08:47:51;;;;;;;1.63;0.90;;;23.60;51.10;;;;;;6288345;28;20029;-58
2023/05/28 08:50:57;;;;;;;1.20;0.82;;;23.60;51.00;;;;;;6288460;28;20330;-58
2023/05/28 08:54:09;;;;;;;0.90;0.80;;;23.40;50.90;;;;;;6287863;28;20115;-58
2023/05/28 08:57:12;;;;;;;1.17;0.90;;;23.70;51.00;;;;;;6288051;28;20037;-58
2023/05/28 09:00:23;;;;;;;1.45;0.70;;;23.60;51.00;;;;;;6287371;28;20032;-58
2023/05/28 09:03:45;;;;;;;1.23;1.10;;;23.60;50.90;;;;;;6287914;28;20040;-58
2023/05/28 09:06:54;;;;;;;0.82;0.70;;;23.70;51.00;;;;;;6286944;28;20443;-58
2023/05/28 09:10:11;;;;;;;0.90;0.75;;;23.70;50.90;;;;;;6287501;28;20237;-58
2023/05/28 09:13:13;;;;;;;0.70;0.70;;;23.30;50.70;;;;;;6287370;28;20123;-58
2023/05/28 09:16:22;;;;;;;0.77;0.70;;;23.60;50.90;;;;;;6287694;28;20041;-58
2023/05/28 09:19:28;;;;;;;1.37;0.80;;;23.60;50.90;;;;;;6286683;28;20036;-58
2023/05/28 09:22:33;;;;;;;1.20;1.05;;;23.40;50.80;;;;;;6288194;28;20036;-58
2023/05/28 09:25:44;;;;;;;1.73;1.08;;;23.80;51.60;;;;;;6287653;28;20108;-58
2023/05/28 09:28:51;;;;;;;1.30;0.80;;;23.80;51.00;;;;;;6287741;28;20063;-57
2023/05/28 09:31:57;;;;;;;0.73;0.70;;;23.60;50.90;;;;;;6287600;28;20090;-58
2023/05/28 09:34:59;;;;;;;1.02;0.90;;;23.80;51.00;;;;;;6287729;28;20033;-58
2023/05/28 09:38:03;;;;;;;1.27;0.80;;;24.00;51.10;;;;;;6287300;28;20041;-58
2023/05/28 09:41:04;;;;;;;1.17;0.95;;;24.00;51.10;;;;;;6285157;28;20559;-58
2023/05/28 09:44:06;;;;;;;0.85;0.82;;;24.00;51.10;;;;;;6287714;28;20043;-58
2023/05/28 09:47:15;;;;;;;1.02;0.90;;;24.10;51.20;;;;;;6287847;28;20044;-58
2023/05/28 09:50:17;;;;;;;0.90;0.75;;;24.00;51.10;;;;;;6287663;28;20118;-58
2023/05/28 09:53:23;;;;;;;1.00;0.85;;;23.90;51.10;;;;;;6269535;28;20040;-58
2023/05/28 09:56:29;;;;;;;0.90;0.75;;;25.00;51.60;;;;;;6287287;28;20049;-58
2023/05/28 09:59:32;;;;;;;1.30;1.00;;;24.10;51.20;;;;;;6287269;28;20503;-58
2023/05/28 10:02:43;;;;;;;1.15;0.90;;;24.20;51.30;;;;;;6285242;28;20503;-59
2023/05/28 10:05:51;;;;;;;1.50;0.80;;;24.30;51.30;;;;;;6286932;28;20041;-58
2023/05/28 10:08:55;;;;;;;1.00;0.90;;;23.80;50.90;;;;;;6286953;28;20040;-58
2023/05/28 10:12:03;;;;;;;1.30;1.00;;;24.20;51.10;;;;;;6285681;28;20127;-58
2023/05/28 10:15:07;;;;;;;0.88;0.80;;;24.00;50.90;;;;;;6286800;28;20503;-58
2023/05/28 10:18:10;;;;;;;1.58;1.05;;;24.30;50.90;;;;;;6287267;28;20044;-58
2023/05/28 10:21:13;;;;;;;1.17;0.95;;;24.40;50.90;;;;;;6286763;28;20042;-58
2023/05/28 10:24:16;;;;;;;1.08;0.98;;;24.10;50.50;;;;;;6287102;28;20037;-58
2023/05/28 10:27:19;;;;;;;1.13;1.00;;;24.40;50.40;;;;;;6284986;28;20071;-57
2023/05/28 10:30:34;;;;;;;1.10;1.00;;;24.30;50.10;;;;;;6286624;28;20071;-58
2023/05/28 10:33:37;;;;;;;1.27;1.00;;;24.50;49.70;;;;;;6285644;28;20052;-57
2023/05/28 10:36:50;;;;;;;1.30;1.20;;;24.50;49.40;;;;;;6285735;28;20090;-58
2023/05/28 10:39:55;;;;;;;1.40;1.17;;;24.40;48.80;;;;;;6268959;28;20102;-58
2023/05/28 10:42:59;;;;;;;1.33;0.80;;;24.00;48.40;;;;;;6285016;28;20052;-59
2023/05/28 10:46:01;;;;;;;1.35;1.20;;;24.50;48.40;;;;;;6284620;28;20044;-58
2023/05/28 10:49:08;;;;;;;0.88;0.82;;;24.50;48.20;;;;;;6286258;28;20044;-58
2023/05/28 10:52:21;;;;;;;1.20;1.10;;;24.50;48.00;;;;;;6286274;28;20041;-58
2023/05/28 10:55:23;;;;;;;1.33;1.00;;;24.30;47.70;;;;;;6286114;28;20511;-58
2023/05/28 10:58:26;;;;;;;1.33;1.00;;;24.20;47.80;;;;;;6285952;28;20499;-58
2023/05/28 11:01:28;;;;;;;0.80;0.80;;;24.30;47.70;;;;;;6284873;28;20036;-58
2023/05/28 11:04:34;;;;;;;1.35;1.25;;;24.20;47.50;;;;;;6286617;28;20213;-58
2023/05/28 11:07:37;;;;;;;0.80;0.80;;;24.40;47.60;;;;;;6285949;28;20045;-58
2023/05/28 11:10:39;;;;;;;1.23;1.02;;;24.50;47.60;;;;;;6285297;28;20033;-56
2023/05/28 11:13:42;;;;;;;0.90;0.80;;;24.30;47.40;;;;;;6284945;28;20120;-58
2023/05/28 11:16:44;;;;;;;1.40;1.10;;;24.30;47.40;;;;;;6285753;28;20040;-56
2023/05/28 11:19:48;;;;;;;1.30;0.88;;;24.30;47.90;;;;;;6286100;28;20655;-58
2023/05/28 11:22:50;;;;;;;0.98;0.80;;;24.30;47.20;;;;;;6285428;28;20067;-58
2023/05/28 11:25:52;;;;;;;1.45;0.90;;;24.30;47.20;;;;;;6285563;28;20041;-58
2023/05/28 11:29:01;;;;;;;1.00;0.88;;;24.30;47.20;;;;;;6285749;28;20514;-57
2023/05/28 11:32:04;;;;;;;1.08;0.98;;;24.40;47.20;;;;;;6284120;28;20044;-58
2023/05/28 11:35:09;;;;;;;1.30;0.90;;;24.40;47.10;;;;;;6285675;28;20518;-58
2023/05/28 11:38:10;;;;;;;1.33;1.23;;;24.20;46.80;;;;;;6289084;28;20044;-58
2023/05/28 11:41:14;;;;;;;1.10;0.90;;;24.20;46.70;;;;;;6289643;28;20048;-58
2023/05/28 11:44:20;;;;;;;1.17;1.00;;;24.20;46.60;;;;;;6290131;28;20036;-59
2023/05/28 11:47:26;;;;;;;1.00;0.80;;;24.20;46.60;;;;;;6271057;28;20060;-57
2023/05/28 11:50:27;;;;;;;1.85;1.10;;;24.40;46.60;;;;;;6288596;28;20484;-57
2023/05/28 11:53:38;;;;;;;1.05;0.98;;;24.40;46.60;;;;;;6290065;28;20029;-57
2023/05/28 11:56:40;;;;;;;1.00;0.80;;;24.40;46.40;;;;;;6289119;28;20037;-57
2023/05/28 11:59:53;;;;;;;1.23;0.80;;;24.40;46.50;;;;;;6288960;28;20052;-58
2023/05/28 12:02:57;;;;;;;1.23;0.98;;;24.20;46.30;;;;;;6289362;28;20039;-57
2023/05/28 12:05:58;;;;;;;1.00;0.90;;;24.30;46.30;;;;;;6288688;28;20037;-57
2023/05/28 12:09:05;;;;;;;1.33;1.10;;;24.40;46.30;;;;;;6289017;28;20197;-57
2023/05/28 12:12:11;;;;;;;1.45;0.95;;;24.40;46.30;;;;;;6289680;28;20039;-57
2023/05/28 12:15:13;;;;;;;1.33;1.10;;;24.00;46.10;;;;;;6289020;28;20492;-57
2023/05/28 12:18:20;;;;;;;0.90;0.80;;;24.30;46.20;;;;;;6288492;28;20041;-57
2023/05/28 12:21:22;;;;;;;1.58;1.10;;;24.30;46.20;;;;;;6289453;28;20428;-56
2023/05/28 12:24:27;;;;;;;1.23;0.90;;;24.40;46.20;;;;;;6288336;28;20040;-57
2023/05/28 12:27:29;;;;;;;1.38;1.20;;;24.30;46.10;;;;;;6287010;28;20074;-56
2023/05/28 12:30:30;;;;;;;1.30;1.00;;;24.30;46.00;;;;;;6288023;28;20071;-56
2023/05/28 12:33:32;;;;;;;1.33;1.10;;;24.20;46.00;;;;;;6287459;28;20066;-57
2023/05/28 12:36:36;;;;;;;1.58;1.17;;;24.40;46.10;;;;;;6284755;28;20053;-57
2023/05/28 12:39:38;;;;;;;1.30;1.10;;;24.30;46.10;;;;;;6288058;28;20041;-56
2023/05/28 12:42:40;;;;;;;1.20;1.10;;;24.30;46.00;;;;;;6287870;28;20248;-57
2023/05/28 12:45:41;;;;;;;1.17;1.02;;;24.40;46.10;;;;;;6286903;28;20516;-57
2023/05/28 12:48:44;;;;;;;1.00;0.90;;;24.50;46.10;;;;;;6286863;28;20079;-57
2023/05/28 12:51:46;;;;;;;1.20;1.10;;;24.30;45.90;;;;;;6288037;28;20452;-57
2023/05/28 12:54:49;;;;;;;1.10;1.00;;;24.20;45.90;;;;;;6286987;28;20041;-57
2023/05/28 12:58:07;;;;;;;1.40;0.95;;;24.30;46.00;;;;;;6287153;28;20539;-57
2023/05/28 13:01:10;;;;;;;1.38;1.00;;;24.40;46.00;;;;;;6287257;28;20037;-57
2023/05/28 13:04:14;;;;;;;1.17;1.02;;;24.30;45.90;;;;;;6288057;28;20334;-57
2023/05/28 13:07:16;;;;;;;1.00;0.70;;;24.20;45.90;;;;;;6287785;28;20044;-57
2023/05/28 13:10:20;;;;;;;1.17;0.90;;;24.40;46.00;;;;;;6287805;28;20410;-57
2023/05/28 13:13:22;;;;;;;0.93;0.80;;;24.30;45.90;;;;;;6288021;28;20488;-57
2023/05/28 13:16:24;;;;;;;1.10;1.00;;;24.50;46.00;;;;;;6285328;28;20036;-57
2023/05/28 13:19:27;;;;;;;1.30;1.10;;;24.50;46.00;;;;;;6286294;28;20491;-56
2023/05/28 13:22:28;;;;;;;1.25;1.08;;;24.40;46.00;;;;;;6286896;28;20040;-56
2023/05/28 13:25:30;;;;;;;1.60;1.05;;;24.40;46.00;;;;;;6286720;28;20484;-57
2023/05/28 13:28:32;;;;;;;1.13;0.85;;;24.30;46.00;;;;;;6284978;28;20435;-56
2023/05/28 13:31:34;;;;;;;1.48;1.15;;;24.30;46.00;;;;;;6287579;28;20044;-57
2023/05/28 13:34:38;;;;;;;1.30;1.20;;;24.40;46.00;;;;;;6286714;28;20693;-57
2023/05/28 13:37:39;;;;;;;1.52;1.05;;;24.50;46.10;;;;;;6285074;28;20550;-57
2023/05/28 13:40:41;;;;;;;1.00;0.90;;;24.30;46.00;;;;;;6287355;28;20043;-57
2023/05/28 13:43:44;;;;;;;1.52;1.25;;;24.40;46.00;;;;;;6287338;28;20037;-57
2023/05/28 13:46:45;;;;;;;1.08;0.98;;;24.40;46.10;;;;;;6287556;28;20419;-56
2023/05/28 13:49:47;;;;;;;1.00;0.90;;;24.00;45.90;;;;;;6287611;28;20040;-56
2023/05/28 13:52:48;;;;;;;1.58;1.00;;;24.40;46.10;;;;;;6286070;28;20035;-57
2023/05/28 13:55:50;;;;;;;1.20;0.98;;;24.30;46.10;;;;;;6287216;28;20032;-57
2023/05/28 13:58:52;;;;;;;1.45;1.17;;;24.40;46.10;;;;;;6286768;28;20095;-56
2023/05/28 14:01:54;;;;;;;1.15;1.02;;;24.30;46.10;;;;;;6287563;28;20041;-56
2023/05/28 14:04:58;;;;;;;1.40;1.10;;;24.40;46.10;;;;;;6286638;28;20044;-57
2023/05/28 14:08:00;;;;;;;1.35;1.25;;;24.40;46.00;;;;;;6286906;28;20044;-56
2023/05/28 14:11:01;;;;;;;1.83;1.05;;;24.40;46.00;;;;;;6286945;28;20526;-57
2023/05/28 14:14:05;;;;;;;1.55;1.15;;;24.20;45.90;;;;;;6286913;28;20621;-56
2023/05/28 14:17:07;;;;;;;1.33;1.15;;;24.30;46.00;;;;;;6286985;28;20079;-57
2023/05/28 14:20:09;;;;;;;1.00;0.90;;;24.30;46.00;;;;;;6287122;28;20123;-56
2023/05/28 14:23:11;;;;;;;1.25;1.15;;;24.40;46.10;;;;;;6286878;28;20047;-57
2023/05/28 14:26:12;;;;;;;1.30;1.20;;;24.40;46.10;;;;;;6286369;28;20094;-57
2023/05/28 14:29:15;;;;;;;1.15;1.05;;;24.30;46.10;;;;;;6285485;28;20551;-57
2023/05/28 14:32:25;;;;;;;1.30;0.95;;;24.20;46.10;;;;;;6285297;28;20045;-57
2023/05/28 14:35:27;;;;;;;1.48;1.27;;;24.50;46.30;;;;;;6285976;28;20112;-57
2023/05/28 14:38:31;;;;;;;1.10;1.00;;;24.50;46.30;;;;;;6285651;28;20585;-57
2023/05/28 14:41:32;;;;;;;1.40;1.05;;;24.20;46.10;;;;;;6286536;28;20500;-56
2023/05/28 14:44:34;;;;;;;1.10;0.85;;;24.50;46.40;;;;;;6287596;28;20060;-57
2023/05/28 14:47:37;;;;;;;1.20;1.10;;;24.40;46.30;;;;;;6285268;28;20056;-56
2023/05/28 14:50:39;;;;;;;0.98;0.80;;;24.40;46.30;;;;;;6284993;28;20037;-57
2023/05/28 14:53:43;;;;;;;1.20;1.00;;;24.30;46.30;;;;;;6286038;28;20041;-55
2023/05/28 14:56:44;;;;;;;0.95;0.82;;;24.40;46.30;;;;;;6286136;28;20389;-57
2023/05/28 14:59:49;;;;;;;1.23;1.13;;;24.40;46.50;;;;;;6286025;28;20033;-57
2023/05/28 15:02:51;;;;;;;1.00;0.82;;;24.00;46.30;;;;;;6284592;28;20545;-56
2023/05/28 15:05:52;;;;;;;1.00;0.90;;;24.20;46.50;;;;;;6286156;28;20535;-57
2023/05/28 15:08:54;;;;;;;1.20;1.05;;;24.40;46.60;;;;;;6285816;28;20067;-56
2023/05/28 15:11:56;;;;;;;1.20;1.10;;;24.30;46.60;;;;;;6286932;28;20515;-55
2023/05/28 15:14:59;;;;;;;1.17;0.93;;;24.50;46.80;;;;;;6290548;28;20086;-57
2023/05/28 15:18:03;;;;;;;1.17;1.00;;;24.40;46.70;;;;;;6290373;28;20032;-57
2023/05/28 15:21:05;;;;;;;1.15;0.93;;;24.40;46.80;;;;;;6289636;28;20040;-57
2023/05/28 15:24:07;;;;;;;1.20;0.80;;;24.20;46.70;;;;;;6289697;28;20033;-57
2023/05/28 15:27:09;;;;;;;1.52;1.10;;;24.40;46.80;;;;;;6289331;28;20048;-57
2023/05/28 15:30:12;;;;;;;1.40;1.10;;;24.50;46.90;;;;;;6290484;28;20036;-57
2023/05/28 15:33:14;;;;;;;1.27;1.00;;;24.30;46.90;;;;;;6289540;28;20040;-57
2023/05/28 15:36:17;;;;;;;1.73;1.27;;;24.40;46.90;;;;;;6290353;28;20632;-55
2023/05/28 15:39:18;;;;;;;1.00;0.90;;;24.50;47.00;;;;;;6290008;28;20032;-57
2023/05/28 15:42:20;;;;;;;1.20;1.02;;;24.40;47.00;;;;;;6289194;28;20518;-57
2023/05/28 15:45:23;;;;;;;1.00;0.82;;;24.20;46.80;;;;;;6289675;28;20047;-57
2023/05/28 15:48:24;;;;;;;1.98;1.25;;;24.20;46.80;;;;;;6290013;28;20111;-57
2023/05/28 15:51:26;;;;;;;1.52;1.05;;;24.40;46.80;;;;;;6289805;28;20064;-57
2023/05/28 15:54:30;;;;;;;1.25;0.90;;;24.50;46.80;;;;;;6289062;28;20041;-56
2023/05/28 15:57:32;;;;;;;1.00;0.88;;;24.50;46.80;;;;;;6289399;28;20469;-57